sensor_id;sensor_type;location;lat;lon;timestamp;pressure;altitude;pressure_sealevel;temperature;humidity
51083;BME280;37131;42.694;23.350;2023-07-09T00:02:24;95870.28;;;18.27;67.19
51083;BME280;37131;42.694;23.350;2023-07-09T00:04:50;95869.19;;;18.17;70.49
51083;BME280;37131;42.694;23.350;2023-07-09T00:07:22;95859.94;;;18.15;71.30
51083;BME280;37131;42.694;23.350;2023-07-09T00:09:49;95862.31;;;18.16;71.37
51083;BME280;37131;42.694;23.350;2023-07-09T00:12:15;95863.41;;;18.26;68.05
51083;BME280;37131;42.694;23.350;2023-07-09T00:14:41;95864.19;;;18.26;68.87
51083;BME280;37131;42.694;23.350;2023-07-09T00:17:49;95860.75;;;18.20;68.10
51083;BME280;37131;42.694;23.350;2023-07-09T00:19:55;95854.97;;;18.23;66.88
51083;BME280;37131;42.694;23.350;2023-07-09T00:22:21;95851.50;;;18.23;68.51
51083;BME280;37131;42.694;23.350;2023-07-09T00:24:47;95853.06;;;18.14;69.67
51083;BME280;37131;42.694;23.350;2023-07-09T00:27:13;95851.19;;;18.09;69.22
51083;BME280;37131;42.694;23.350;2023-07-09T00:29:39;95856.00;;;18.17;69.02
51083;BME280;37131;42.694;23.350;2023-07-09T00:32:09;95859.41;;;18.18;67.36
51083;BME280;37131;42.694;23.350;2023-07-09T00:34:35;95854.91;;;18.13;68.29
51083;BME280;37131;42.694;23.350;2023-07-09T00:37:00;95854.41;;;18.21;66.62
51083;BME280;37131;42.694;23.350;2023-07-09T00:39:26;95849.38;;;18.20;68.09
51083;BME280;37131;42.694;23.350;2023-07-09T00:41:51;95858.38;;;18.24;68.10
51083;BME280;37131;42.694;23.350;2023-07-09T00:49:13;95851.19;;;18.14;68.54
51083;BME280;37131;42.694;23.350;2023-07-09T00:51:42;95846.69;;;18.04;69.49
51083;BME280;37131;42.694;23.350;2023-07-09T00:54:18;95843.44;;;17.92;70.45
51083;BME280;37131;42.694;23.350;2023-07-09T00:56:45;95840.28;;;17.90;71.69
51083;BME280;37131;42.694;23.350;2023-07-09T00:59:12;95840.72;;;17.82;72.03
51083;BME280;37131;42.694;23.350;2023-07-09T01:01:40;95843.84;;;17.74;74.72
51083;BME280;37131;42.694;23.350;2023-07-09T01:04:05;95843.53;;;17.70;73.21
51083;BME280;37131;42.694;23.350;2023-07-09T01:06:41;95842.81;;;17.75;70.87
51083;BME280;37131;42.694;23.350;2023-07-09T01:09:08;95821.25;;;17.45;75.20
51083;BME280;37131;42.694;23.350;2023-07-09T01:11:34;95836.06;;;17.57;74.90
51083;BME280;37131;42.694;23.350;2023-07-09T01:14:00;95842.16;;;17.57;74.95
51083;BME280;37131;42.694;23.350;2023-07-09T01:16:36;95841.59;;;17.50;74.10
51083;BME280;37131;42.694;23.350;2023-07-09T01:19:02;95846.00;;;17.39;76.26
51083;BME280;37131;42.694;23.350;2023-07-09T01:21:29;95835.66;;;17.32;77.28
51083;BME280;37131;42.694;23.350;2023-07-09T01:23:54;95832.69;;;17.24;78.35
51083;BME280;37131;42.694;23.350;2023-07-09T01:26:21;95831.81;;;17.13;79.16
51083;BME280;37131;42.694;23.350;2023-07-09T01:28:47;95834.19;;;17.14;78.54
51083;BME280;37131;42.694;23.350;2023-07-09T01:31:14;95833.31;;;17.04;80.21
51083;BME280;37131;42.694;23.350;2023-07-09T01:33:40;95834.31;;;16.97;80.80
51083;BME280;37131;42.694;23.350;2023-07-09T01:36:08;95832.72;;;16.96;81.61
51083;BME280;37131;42.694;23.350;2023-07-09T01:38:34;95830.13;;;17.01;80.96
51083;BME280;37131;42.694;23.350;2023-07-09T01:40:59;95829.03;;;16.97;78.92
51083;BME280;37131;42.694;23.350;2023-07-09T01:43:25;95829.78;;;16.93;80.32
51083;BME280;37131;42.694;23.350;2023-07-09T01:45:50;95839.91;;;16.79;79.13
51083;BME280;37131;42.694;23.350;2023-07-09T01:48:16;95845.84;;;16.91;78.01
51083;BME280;37131;42.694;23.350;2023-07-09T01:50:42;95848.66;;;16.84;80.08
51083;BME280;37131;42.694;23.350;2023-07-09T01:53:09;95856.72;;;16.73;82.63
51083;BME280;37131;42.694;23.350;2023-07-09T01:55:35;95861.97;;;16.73;83.92
51083;BME280;37131;42.694;23.350;2023-07-09T01:58:01;95857.50;;;16.73;84.52
51083;BME280;37131;42.694;23.350;2023-07-09T02:00:30;95861.63;;;16.64;85.40
51083;BME280;37131;42.694;23.350;2023-07-09T02:02:56;95853.63;;;16.54;87.26
51083;BME280;37131;42.694;23.350;2023-07-09T02:05:23;95861.75;;;16.52;85.51
51083;BME280;37131;42.694;23.350;2023-07-09T02:07:48;95861.16;;;16.45;85.23
51083;BME280;37131;42.694;23.350;2023-07-09T02:10:15;95865.44;;;16.29;87.68
51083;BME280;37131;42.694;23.350;2023-07-09T02:12:40;95868.91;;;16.12;91.51
51083;BME280;37131;42.694;23.350;2023-07-09T02:15:06;95867.13;;;15.96;93.15
51083;BME280;37131;42.694;23.350;2023-07-09T02:17:31;95865.19;;;15.91;95.11
51083;BME280;37131;42.694;23.350;2023-07-09T02:19:56;95861.72;;;15.86;95.93
51083;BME280;37131;42.694;23.350;2023-07-09T02:22:21;95866.47;;;15.72;98.12
51083;BME280;37131;42.694;23.350;2023-07-09T02:24:47;95865.22;;;15.57;98.52
51083;BME280;37131;42.694;23.350;2023-07-09T02:27:14;95862.44;;;15.47;99.84
51083;BME280;37131;42.694;23.350;2023-07-09T02:29:40;95865.28;;;15.46;99.29
51083;BME280;37131;42.694;23.350;2023-07-09T02:32:05;95872.22;;;15.35;100.00
51083;BME280;37131;42.694;23.350;2023-07-09T02:34:31;95880.59;;;15.32;100.00
51083;BME280;37131;42.694;23.350;2023-07-09T02:36:57;95874.53;;;15.31;100.00
51083;BME280;37131;42.694;23.350;2023-07-09T02:39:22;95877.91;;;15.26;100.00
51083;BME280;37131;42.694;23.350;2023-07-09T02:41:48;95882.25;;;15.21;100.00
51083;BME280;37131;42.694;23.350;2023-07-09T02:44:13;95887.34;;;15.11;100.00
51083;BME280;37131;42.694;23.350;2023-07-09T02:46:39;95888.06;;;15.06;100.00
51083;BME280;37131;42.694;23.350;2023-07-09T02:49:05;95889.31;;;15.03;100.00
51083;BME280;37131;42.694;23.350;2023-07-09T02:51:30;95892.72;;;15.04;100.00
51083;BME280;37131;42.694;23.350;2023-07-09T02:53:56;95898.69;;;14.99;100.00
51083;BME280;37131;42.694;23.350;2023-07-09T02:56:22;95898.13;;;14.97;100.00
51083;BME280;37131;42.694;23.350;2023-07-09T02:58:47;95899.28;;;14.89;100.00
51083;BME280;37131;42.694;23.350;2023-07-09T03:01:13;95907.09;;;14.84;100.00
51083;BME280;37131;42.694;23.350;2023-07-09T03:03:38;95911.78;;;14.82;100.00
51083;BME280;37131;42.694;23.350;2023-07-09T03:06:03;95915.78;;;14.73;100.00
51083;BME280;37131;42.694;23.350;2023-07-09T03:08:29;95915.47;;;14.69;100.00
51083;BME280;37131;42.694;23.350;2023-07-09T03:10:54;95920.38;;;14.66;100.00
51083;BME280;37131;42.694;23.350;2023-07-09T03:13:19;95914.66;;;14.69;100.00
51083;BME280;37131;42.694;23.350;2023-07-09T03:15:53;95922.44;;;14.64;100.00
51083;BME280;37131;42.694;23.350;2023-07-09T03:18:18;95922.78;;;14.67;100.00
51083;BME280;37131;42.694;23.350;2023-07-09T03:20:43;95918.00;;;14.64;100.00
51083;BME280;37131;42.694;23.350;2023-07-09T03:23:09;95918.00;;;14.64;100.00
51083;BME280;37131;42.694;23.350;2023-07-09T03:25:34;95918.56;;;14.66;100.00
51083;BME280;37131;42.694;23.350;2023-07-09T03:27:59;95917.28;;;14.69;100.00
51083;BME280;37131;42.694;23.350;2023-07-09T03:30:24;95919.81;;;14.64;100.00
51083;BME280;37131;42.694;23.350;2023-07-09T03:32:50;95925.41;;;14.55;100.00
51083;BME280;37131;42.694;23.350;2023-07-09T03:35:15;95918.47;;;14.49;100.00
51083;BME280;37131;42.694;23.350;2023-07-09T03:37:40;95916.41;;;14.51;100.00
51083;BME280;37131;42.694;23.350;2023-07-09T03:40:08;95923.81;;;14.54;100.00
51083;BME280;37131;42.694;23.350;2023-07-09T03:42:34;95919.91;;;14.57;100.00
51083;BME280;37131;42.694;23.350;2023-07-09T03:44:59;95922.34;;;14.70;100.00
51083;BME280;37131;42.694;23.350;2023-07-09T03:47:24;95920.25;;;14.72;100.00
51083;BME280;37131;42.694;23.350;2023-07-09T03:49:49;95920.97;;;14.68;100.00
51083;BME280;37131;42.694;23.350;2023-07-09T03:52:15;95927.78;;;14.69;100.00
51083;BME280;37131;42.694;23.350;2023-07-09T03:54:40;95922.53;;;14.81;100.00
51083;BME280;37131;42.694;23.350;2023-07-09T03:57:05;95920.22;;;14.84;100.00
51083;BME280;37131;42.694;23.350;2023-07-09T03:59:31;95926.84;;;14.87;100.00
51083;BME280;37131;42.694;23.350;2023-07-09T04:01:56;95921.66;;;14.92;100.00
51083;BME280;37131;42.694;23.350;2023-07-09T04:04:22;95924.41;;;14.97;100.00
51083;BME280;37131;42.694;23.350;2023-07-09T04:06:47;95928.22;;;15.06;100.00
51083;BME280;37131;42.694;23.350;2023-07-09T04:09:12;95928.88;;;15.14;100.00
51083;BME280;37131;42.694;23.350;2023-07-09T04:11:38;95938.91;;;15.17;100.00
51083;BME280;37131;42.694;23.350;2023-07-09T04:14:03;95932.59;;;15.30;100.00
51083;BME280;37131;42.694;23.350;2023-07-09T04:16:28;95935.28;;;15.35;100.00
51083;BME280;37131;42.694;23.350;2023-07-09T04:18:53;95933.78;;;15.39;100.00
51083;BME280;37131;42.694;23.350;2023-07-09T04:21:18;95939.59;;;15.41;100.00
51083;BME280;37131;42.694;23.350;2023-07-09T04:23:44;95942.16;;;15.53;100.00
51083;BME280;37131;42.694;23.350;2023-07-09T04:26:13;95948.88;;;15.60;100.00
51083;BME280;37131;42.694;23.350;2023-07-09T04:28:38;95944.69;;;15.65;100.00
51083;BME280;37131;42.694;23.350;2023-07-09T04:31:03;95949.47;;;15.68;100.00
51083;BME280;37131;42.694;23.350;2023-07-09T04:33:28;95946.41;;;15.71;100.00
51083;BME280;37131;42.694;23.350;2023-07-09T04:35:54;95946.31;;;15.66;100.00
51083;BME280;37131;42.694;23.350;2023-07-09T04:38:19;95958.50;;;15.55;100.00
51083;BME280;37131;42.694;23.350;2023-07-09T04:40:46;95962.56;;;15.63;100.00
51083;BME280;37131;42.694;23.350;2023-07-09T04:43:11;95958.72;;;15.70;100.00
51083;BME280;37131;42.694;23.350;2023-07-09T04:45:37;95956.56;;;15.67;100.00
51083;BME280;37131;42.694;23.350;2023-07-09T04:48:02;95954.50;;;15.69;100.00
51083;BME280;37131;42.694;23.350;2023-07-09T04:50:27;95951.72;;;15.76;100.00
51083;BME280;37131;42.694;23.350;2023-07-09T04:52:52;95949.34;;;15.74;100.00
51083;BME280;37131;42.694;23.350;2023-07-09T04:55:18;95951.97;;;15.74;100.00
51083;BME280;37131;42.694;23.350;2023-07-09T04:57:44;95952.88;;;15.80;100.00
51083;BME280;37131;42.694;23.350;2023-07-09T05:00:09;95952.63;;;15.82;100.00
51083;BME280;37131;42.694;23.350;2023-07-09T05:02:35;95948.16;;;15.82;100.00
51083;BME280;37131;42.694;23.350;2023-07-09T05:05:00;95959.31;;;15.89;100.00
51083;BME280;37131;42.694;23.350;2023-07-09T05:07:25;95958.19;;;16.02;100.00
51083;BME280;37131;42.694;23.350;2023-07-09T05:09:51;95953.63;;;16.14;100.00
51083;BME280;37131;42.694;23.350;2023-07-09T05:12:16;95954.56;;;16.25;100.00
51083;BME280;37131;42.694;23.350;2023-07-09T05:14:42;95958.78;;;16.26;100.00
51083;BME280;37131;42.694;23.350;2023-07-09T05:17:08;95962.69;;;16.41;100.00
51083;BME280;37131;42.694;23.350;2023-07-09T05:19:33;95968.13;;;16.56;100.00
51083;BME280;37131;42.694;23.350;2023-07-09T05:21:58;95966.44;;;16.67;100.00
51083;BME280;37131;42.694;23.350;2023-07-09T05:24:24;95973.72;;;16.82;100.00
51083;BME280;37131;42.694;23.350;2023-07-09T05:26:49;95968.09;;;16.73;100.00
51083;BME280;37131;42.694;23.350;2023-07-09T05:29:14;95963.25;;;16.87;98.80
51083;BME280;37131;42.694;23.350;2023-07-09T05:31:40;95962.63;;;17.02;98.74
51083;BME280;37131;42.694;23.350;2023-07-09T05:34:07;95963.59;;;17.18;99.30
51083;BME280;37131;42.694;23.350;2023-07-09T05:36:32;95962.16;;;17.32;99.29
51083;BME280;37131;42.694;23.350;2023-07-09T05:38:57;95950.13;;;17.42;96.43
51083;BME280;37131;42.694;23.350;2023-07-09T05:41:23;95940.06;;;17.66;94.76
51083;BME280;37131;42.694;23.350;2023-07-09T05:43:49;95942.22;;;17.74;99.54
51083;BME280;37131;42.694;23.350;2023-07-09T05:46:14;95943.34;;;17.83;91.03
51083;BME280;37131;42.694;23.350;2023-07-09T05:48:40;95954.09;;;18.09;87.32
51083;BME280;37131;42.694;23.350;2023-07-09T05:51:05;95944.69;;;18.23;83.48
51083;BME280;37131;42.694;23.350;2023-07-09T05:53:30;95958.78;;;18.39;86.02
51083;BME280;37131;42.694;23.350;2023-07-09T05:55:57;95945.59;;;18.50;84.97
51083;BME280;37131;42.694;23.350;2023-07-09T05:58:23;95948.06;;;18.62;85.49
51083;BME280;37131;42.694;23.350;2023-07-09T06:00:51;95951.78;;;18.76;82.42
51083;BME280;37131;42.694;23.350;2023-07-09T06:03:21;95948.97;;;18.88;79.04
51083;BME280;37131;42.694;23.350;2023-07-09T06:05:47;95943.72;;;18.93;75.97
51083;BME280;37131;42.694;23.350;2023-07-09T06:08:15;95947.19;;;19.09;78.26
51083;BME280;37131;42.694;23.350;2023-07-09T06:10:49;95942.44;;;19.21;76.80
51083;BME280;37131;42.694;23.350;2023-07-09T06:13:15;95947.50;;;19.33;78.02
51083;BME280;37131;42.694;23.350;2023-07-09T06:15:40;95945.91;;;19.42;79.98
51083;BME280;37131;42.694;23.350;2023-07-09T06:18:05;95942.22;;;19.54;75.23
51083;BME280;37131;42.694;23.350;2023-07-09T06:20:30;95939.31;;;19.55;78.11
51083;BME280;37131;42.694;23.350;2023-07-09T06:22:56;95938.00;;;19.63;72.86
51083;BME280;37131;42.694;23.350;2023-07-09T06:25:21;95940.69;;;19.78;71.37
51083;BME280;37131;42.694;23.350;2023-07-09T06:27:46;95941.97;;;19.81;71.75
51083;BME280;37131;42.694;23.350;2023-07-09T06:30:11;95939.88;;;19.88;70.65
51083;BME280;37131;42.694;23.350;2023-07-09T06:32:37;95930.88;;;19.89;69.08
51083;BME280;37131;42.694;23.350;2023-07-09T06:35:02;95939.59;;;20.05;67.75
51083;BME280;37131;42.694;23.350;2023-07-09T06:37:28;95936.13;;;20.10;70.06
51083;BME280;37131;42.694;23.350;2023-07-09T06:39:53;95934.78;;;20.18;68.78
51083;BME280;37131;42.694;23.350;2023-07-09T06:42:18;95933.44;;;20.25;70.25
51083;BME280;37131;42.694;23.350;2023-07-09T06:44:44;95931.81;;;20.45;67.27
51083;BME280;37131;42.694;23.350;2023-07-09T06:47:09;95928.94;;;20.36;66.40
51083;BME280;37131;42.694;23.350;2023-07-09T06:49:34;95937.38;;;20.48;66.83
51083;BME280;37131;42.694;23.350;2023-07-09T06:51:59;95933.34;;;20.56;68.90
51083;BME280;37131;42.694;23.350;2023-07-09T06:54:25;95934.16;;;20.67;69.43
51083;BME280;37131;42.694;23.350;2023-07-09T06:56:50;95931.25;;;20.68;67.34
51083;BME280;37131;42.694;23.350;2023-07-09T06:59:15;95938.28;;;20.89;65.42
51083;BME280;37131;42.694;23.350;2023-07-09T07:01:41;95934.34;;;20.86;63.08
51083;BME280;37131;42.694;23.350;2023-07-09T07:04:06;95932.16;;;20.93;62.40
51083;BME280;37131;42.694;23.350;2023-07-09T07:06:31;95935.91;;;20.87;64.24
51083;BME280;37131;42.694;23.350;2023-07-09T07:08:56;95930.31;;;20.94;64.53
51083;BME280;37131;42.694;23.350;2023-07-09T07:11:22;95934.53;;;21.00;61.20
51083;BME280;37131;42.694;23.350;2023-07-09T07:13:47;95935.06;;;20.97;61.92
51083;BME280;37131;42.694;23.350;2023-07-09T07:16:16;95929.47;;;21.03;61.65
51083;BME280;37131;42.694;23.350;2023-07-09T07:18:42;95933.38;;;21.16;63.20
51083;BME280;37131;42.694;23.350;2023-07-09T07:21:07;95928.28;;;21.25;63.81
51083;BME280;37131;42.694;23.350;2023-07-09T07:23:32;95921.38;;;21.29;61.01
51083;BME280;37131;42.694;23.350;2023-07-09T07:25:58;95916.75;;;21.45;61.43
51083;BME280;37131;42.694;23.350;2023-07-09T07:28:23;95910.84;;;21.59;58.86
51083;BME280;37131;42.694;23.350;2023-07-09T07:31:05;95915.91;;;21.50;60.44
51083;BME280;37131;42.694;23.350;2023-07-09T07:33:30;95907.72;;;21.51;59.93
51083;BME280;37131;42.694;23.350;2023-07-09T07:35:56;95917.72;;;21.60;58.44
51083;BME280;37131;42.694;23.350;2023-07-09T07:38:21;95910.41;;;21.76;59.85
51083;BME280;37131;42.694;23.350;2023-07-09T07:40:46;95910.84;;;21.88;54.47
51083;BME280;37131;42.694;23.350;2023-07-09T07:43:11;95908.56;;;21.76;55.32
51083;BME280;37131;42.694;23.350;2023-07-09T07:45:40;95896.84;;;21.82;57.33
51083;BME280;37131;42.694;23.350;2023-07-09T07:48:06;95899.69;;;21.91;59.41
51083;BME280;37131;42.694;23.350;2023-07-09T07:52:56;95908.22;;;22.12;52.99
51083;BME280;37131;42.694;23.350;2023-07-09T07:55:21;95909.53;;;22.15;53.05
51083;BME280;37131;42.694;23.350;2023-07-09T07:57:47;95899.59;;;22.25;52.63
51083;BME280;37131;42.694;23.350;2023-07-09T08:00:12;95909.63;;;22.29;54.29
51083;BME280;37131;42.694;23.350;2023-07-09T08:02:38;95900.59;;;22.30;53.81
51083;BME280;37131;42.694;23.350;2023-07-09T08:05:03;95904.19;;;22.44;50.79
51083;BME280;37131;42.694;23.350;2023-07-09T08:07:30;95897.91;;;22.35;52.39
51083;BME280;37131;42.694;23.350;2023-07-09T08:09:55;95900.53;;;22.40;51.15
51083;BME280;37131;42.694;23.350;2023-07-09T08:12:21;95889.03;;;22.45;52.60
51083;BME280;37131;42.694;23.350;2023-07-09T08:14:46;95885.69;;;22.58;52.20
51083;BME280;37131;42.694;23.350;2023-07-09T08:17:11;95893.28;;;22.65;51.26
51083;BME280;37131;42.694;23.350;2023-07-09T08:19:52;95885.84;;;22.67;51.34
51083;BME280;37131;42.694;23.350;2023-07-09T08:22:18;95881.53;;;22.71;51.83
51083;BME280;37131;42.694;23.350;2023-07-09T08:24:45;95890.75;;;22.78;51.60
51083;BME280;37131;42.694;23.350;2023-07-09T08:27:11;95877.31;;;22.89;50.52
51083;BME280;37131;42.694;23.350;2023-07-09T08:29:36;95879.97;;;22.89;50.09
51083;BME280;37131;42.694;23.350;2023-07-09T08:32:02;95879.84;;;22.99;51.55
51083;BME280;37131;42.694;23.350;2023-07-09T08:34:27;95877.53;;;23.11;50.29
51083;BME280;37131;42.694;23.350;2023-07-09T08:36:53;95896.69;;;23.14;49.14
51083;BME280;37131;42.694;23.350;2023-07-09T08:39:19;95884.63;;;22.97;50.70
51083;BME280;37131;42.694;23.350;2023-07-09T08:49:17;95880.88;;;23.22;51.97
51083;BME280;37131;42.694;23.350;2023-07-09T08:51:44;95876.75;;;23.30;51.26
51083;BME280;37131;42.694;23.350;2023-07-09T08:54:15;95876.88;;;23.39;51.40
51083;BME280;37131;42.694;23.350;2023-07-09T08:56:42;95877.19;;;23.37;50.64
51083;BME280;37131;42.694;23.350;2023-07-09T08:59:08;95886.38;;;23.45;50.68
51083;BME280;37131;42.694;23.350;2023-07-09T09:01:38;95882.25;;;23.53;50.50
51083;BME280;37131;42.694;23.350;2023-07-09T09:06:37;95878.41;;;23.59;51.91
51083;BME280;37131;42.694;23.350;2023-07-09T09:09:22;95878.53;;;23.68;51.83
51083;BME280;37131;42.694;23.350;2023-07-09T09:14:33;95876.09;;;23.71;51.07
51083;BME280;37131;42.694;23.350;2023-07-09T09:16:59;95867.22;;;23.76;48.68
51083;BME280;37131;42.694;23.350;2023-07-09T09:19:29;95871.97;;;23.79;49.63
51083;BME280;37131;42.694;23.350;2023-07-09T09:22:00;95877.91;;;23.90;50.39
51083;BME280;37131;42.694;23.350;2023-07-09T09:24:40;95874.69;;;24.07;50.93
51083;BME280;37131;42.694;23.350;2023-07-09T09:27:11;95865.69;;;24.16;50.90
51083;BME280;37131;42.694;23.350;2023-07-09T09:29:36;95868.69;;;24.29;48.43
51083;BME280;37131;42.694;23.350;2023-07-09T09:32:04;95869.66;;;24.19;47.97
51083;BME280;37131;42.694;23.350;2023-07-09T09:34:40;95854.47;;;24.33;49.23
51083;BME280;37131;42.694;23.350;2023-07-09T09:37:10;95872.00;;;24.48;48.24
51083;BME280;37131;42.694;23.350;2023-07-09T09:39:39;95871.84;;;24.45;47.56
51083;BME280;37131;42.694;23.350;2023-07-09T09:42:07;95855.03;;;24.44;48.87
51083;BME280;37131;42.694;23.350;2023-07-09T09:44:35;95867.38;;;24.54;48.25
51083;BME280;37131;42.694;23.350;2023-07-09T09:47:00;95863.31;;;24.71;47.43
51083;BME280;37131;42.694;23.350;2023-07-09T09:49:25;95863.88;;;24.81;48.13
51083;BME280;37131;42.694;23.350;2023-07-09T09:51:51;95853.19;;;24.95;48.56
51083;BME280;37131;42.694;23.350;2023-07-09T09:54:20;95859.38;;;24.82;46.88
51083;BME280;37131;42.694;23.350;2023-07-09T09:56:48;95852.22;;;24.91;48.07
51083;BME280;37131;42.694;23.350;2023-07-09T09:59:18;95846.09;;;24.91;45.23
51083;BME280;37131;42.694;23.350;2023-07-09T10:01:44;95842.03;;;24.93;46.52
51083;BME280;37131;42.694;23.350;2023-07-09T10:04:10;95851.63;;;24.94;46.99
51083;BME280;37131;42.694;23.350;2023-07-09T10:06:42;95840.28;;;25.11;47.03
51083;BME280;37131;42.694;23.350;2023-07-09T10:09:13;95850.41;;;25.23;46.61
51083;BME280;37131;42.694;23.350;2023-07-09T10:11:49;95841.41;;;25.33;45.89
51083;BME280;37131;42.694;23.350;2023-07-09T10:14:25;95847.31;;;25.30;44.78
51083;BME280;37131;42.694;23.350;2023-07-09T10:16:54;95841.00;;;25.26;43.83
51083;BME280;37131;42.694;23.350;2023-07-09T10:19:25;95835.13;;;25.15;43.69
51083;BME280;37131;42.694;23.350;2023-07-09T10:22:00;95841.00;;;25.39;45.42
51083;BME280;37131;42.694;23.350;2023-07-09T10:35:28;95834.13;;;25.47;43.31
51083;BME280;37131;42.694;23.350;2023-07-09T10:40:04;95832.22;;;25.70;44.73
51083;BME280;37131;42.694;23.350;2023-07-09T10:42:38;95818.13;;;25.87;43.28
51083;BME280;37131;42.694;23.350;2023-07-09T10:45:12;95813.56;;;25.88;42.18
51083;BME280;37131;42.694;23.350;2023-07-09T10:47:40;95818.66;;;25.98;41.96
51083;BME280;37131;42.694;23.350;2023-07-09T10:50:09;95813.53;;;26.11;44.16
51083;BME280;37131;42.694;23.350;2023-07-09T10:52:37;95807.09;;;26.20;41.75
51083;BME280;37131;42.694;23.350;2023-07-09T11:00:17;95809.69;;;26.34;39.63
51083;BME280;37131;42.694;23.350;2023-07-09T11:02:43;95818.19;;;26.45;42.13
51083;BME280;37131;42.694;23.350;2023-07-09T11:05:09;95827.28;;;26.44;39.36
51083;BME280;37131;42.694;23.350;2023-07-09T11:10:01;95817.78;;;26.12;40.29
51083;BME280;37131;42.694;23.350;2023-07-09T11:12:36;95810.44;;;26.26;42.73
51083;BME280;37131;42.694;23.350;2023-07-09T11:15:05;95813.31;;;26.38;39.96
51083;BME280;37131;42.694;23.350;2023-07-09T11:17:33;95811.88;;;26.50;39.84
51083;BME280;37131;42.694;23.350;2023-07-09T11:20:06;95804.06;;;26.62;40.89
51083;BME280;37131;42.694;23.350;2023-07-09T11:22:37;95825.44;;;26.53;40.65
51083;BME280;37131;42.694;23.350;2023-07-09T11:25:07;95814.13;;;26.65;39.63
51083;BME280;37131;42.694;23.350;2023-07-09T11:27:33;95811.44;;;26.65;39.56
51083;BME280;37131;42.694;23.350;2023-07-09T11:30:20;95812.22;;;26.48;40.08
51083;BME280;37131;42.694;23.350;2023-07-09T11:32:46;95811.09;;;26.40;39.92
51083;BME280;37131;42.694;23.350;2023-07-09T11:35:25;95808.91;;;26.51;39.49
51083;BME280;37131;42.694;23.350;2023-07-09T11:37:50;95808.59;;;26.53;39.72
51083;BME280;37131;42.694;23.350;2023-07-09T11:40:18;95797.88;;;26.44;38.51
51083;BME280;37131;42.694;23.350;2023-07-09T11:45:13;95796.63;;;26.41;39.32
51083;BME280;37131;42.694;23.350;2023-07-09T11:50:29;95793.88;;;26.82;40.41
51083;BME280;37131;42.694;23.350;2023-07-09T11:52:58;95788.50;;;26.90;40.55
51083;BME280;37131;42.694;23.350;2023-07-09T11:55:28;95778.91;;;26.81;39.45
51083;BME280;37131;42.694;23.350;2023-07-09T11:57:54;95780.47;;;26.90;39.60
51083;BME280;37131;42.694;23.350;2023-07-09T12:00:20;95782.03;;;27.00;41.18
51083;BME280;37131;42.694;23.350;2023-07-09T12:02:45;95777.00;;;27.07;41.28
51083;BME280;37131;42.694;23.350;2023-07-09T12:05:10;95786.44;;;27.13;39.31
51083;BME280;37131;42.694;23.350;2023-07-09T12:07:37;95784.84;;;27.21;39.81
51083;BME280;37131;42.694;23.350;2023-07-09T12:10:03;95782.97;;;27.22;38.87
51083;BME280;37131;42.694;23.350;2023-07-09T12:12:29;95779.97;;;27.23;40.30
51083;BME280;37131;42.694;23.350;2023-07-09T12:14:54;95780.47;;;27.17;39.81
51083;BME280;37131;42.694;23.350;2023-07-09T12:17:22;95784.53;;;27.31;39.32
51083;BME280;37131;42.694;23.350;2023-07-09T12:19:50;95777.78;;;27.25;38.67
51083;BME280;37131;42.694;23.350;2023-07-09T12:22:19;95778.88;;;27.33;39.15
51083;BME280;37131;42.694;23.350;2023-07-09T12:24:46;95767.47;;;27.54;38.80
51083;BME280;37131;42.694;23.350;2023-07-09T12:27:19;95771.91;;;27.50;40.43
51083;BME280;37131;42.694;23.350;2023-07-09T12:29:45;95770.97;;;27.45;41.99
51083;BME280;37131;42.694;23.350;2023-07-09T12:32:15;95763.25;;;27.44;39.17
51083;BME280;37131;42.694;23.350;2023-07-09T12:34:41;95763.22;;;27.53;39.39
51083;BME280;37131;42.694;23.350;2023-07-09T12:37:25;95760.88;;;27.51;41.08
51083;BME280;37131;42.694;23.350;2023-07-09T12:39:53;95766.28;;;27.72;38.29
51083;BME280;37131;42.694;23.350;2023-07-09T12:42:19;95756.25;;;27.60;38.25
51083;BME280;37131;42.694;23.350;2023-07-09T12:44:45;95767.19;;;27.46;38.86
51083;BME280;37131;42.694;23.350;2023-07-09T12:47:14;95750.91;;;27.60;40.70
51083;BME280;37131;42.694;23.350;2023-07-09T12:49:41;95753.41;;;27.65;38.83
51083;BME280;37131;42.694;23.350;2023-07-09T12:52:09;95752.81;;;27.60;38.02
51083;BME280;37131;42.694;23.350;2023-07-09T12:54:34;95747.53;;;27.72;38.03
51083;BME280;37131;42.694;23.350;2023-07-09T12:56:59;95747.44;;;27.60;40.13
51083;BME280;37131;42.694;23.350;2023-07-09T13:04:29;95751.00;;;27.25;38.96
51083;BME280;37131;42.694;23.350;2023-07-09T13:06:55;95748.47;;;27.20;40.26
51083;BME280;37131;42.694;23.350;2023-07-09T13:09:24;95742.47;;;27.32;39.98
51083;BME280;37131;42.694;23.350;2023-07-09T13:11:50;95741.19;;;27.29;39.66
51083;BME280;37131;42.694;23.350;2023-07-09T13:14:18;95759.19;;;27.11;40.13
51083;BME280;37131;42.694;23.350;2023-07-09T13:16:43;95751.81;;;27.08;40.01
51083;BME280;37131;42.694;23.350;2023-07-09T13:19:09;95752.28;;;27.10;39.86
51083;BME280;37131;42.694;23.350;2023-07-09T13:21:34;95749.00;;;26.96;38.95
51083;BME280;37131;42.694;23.350;2023-07-09T13:24:01;95758.56;;;27.06;40.02
51083;BME280;37131;42.694;23.350;2023-07-09T13:26:29;95748.69;;;26.80;39.94
51083;BME280;37131;42.694;23.350;2023-07-09T13:28:55;95761.00;;;26.72;39.85
51083;BME280;37131;42.694;23.350;2023-07-09T13:31:20;95759.88;;;26.82;41.86
51083;BME280;37131;42.694;23.350;2023-07-09T13:33:56;95760.81;;;26.77;40.26
51083;BME280;37131;42.694;23.350;2023-07-09T13:36:22;95749.16;;;26.82;40.30
51083;BME280;37131;42.694;23.350;2023-07-09T13:38:47;95756.84;;;27.01;40.84